createdAt,value
2023-05-12T00:01:19.795Z,13.99
2023-05-12T00:04:22.494Z,13.96
2023-05-12T00:07:26.662Z,14.00
2023-05-12T00:10:29.457Z,14.00
2023-05-12T00:13:32.102Z,13.95
2023-05-12T00:16:34.782Z,13.99
2023-05-12T00:19:37.435Z,13.98
2023-05-12T00:22:42.160Z,14.00
2023-05-12T00:25:44.730Z,14.05
2023-05-12T00:28:47.597Z,14.09
2023-05-12T00:31:50.286Z,14.05
2023-05-12T00:34:54.200Z,14.08
2023-05-12T00:37:58.150Z,14.08
2023-05-12T00:41:00.733Z,14.08
2023-05-12T00:44:03.346Z,14.15
2023-05-12T00:47:06.489Z,14.18
2023-05-12T00:50:10.076Z,14.24
2023-05-12T00:53:14.227Z,14.24
2023-05-12T00:56:18.193Z,14.26
2023-05-12T00:59:20.780Z,14.29
2023-05-12T01:02:24.117Z,14.37
2023-05-12T01:05:31.612Z,14.42
2023-05-12T01:08:36.119Z,14.48
2023-05-12T01:11:38.927Z,14.49
2023-05-12T01:14:41.935Z,14.57
2023-05-12T01:17:51.218Z,14.61
2023-05-12T01:20:56.384Z,14.64
2023-05-12T01:24:07.411Z,14.69
2023-05-12T01:27:11.760Z,14.77
2023-05-12T01:30:17.897Z,14.74
2023-05-12T01:33:20.637Z,14.75
2023-05-12T01:36:23.222Z,14.76
2023-05-12T01:39:26.157Z,14.81
2023-05-12T01:42:30.252Z,14.87
2023-05-12T01:45:33.317Z,14.89
2023-05-12T01:48:35.900Z,14.87
2023-05-12T01:51:38.486Z,14.90
2023-05-12T01:54:41.080Z,15.01
2023-05-12T01:57:45.001Z,14.96
2023-05-12T02:00:47.612Z,15.02
2023-05-12T02:03:50.332Z,14.96
2023-05-12T02:06:53.021Z,15.09
2023-05-12T02:09:55.601Z,15.18
2023-05-12T02:12:59.636Z,15.07
2023-05-12T02:16:02.695Z,15.20
2023-05-12T02:19:05.436Z,15.23
2023-05-12T02:22:08.203Z,15.25
2023-05-12T02:25:10.938Z,15.15
2023-05-12T02:28:14.908Z,15.26
2023-05-12T02:31:17.471Z,15.23
2023-05-12T02:34:20.035Z,15.26
2023-05-12T02:37:22.634Z,15.27
2023-05-12T02:40:25.212Z,15.24
2023-05-12T02:43:29.164Z,15.34
2023-05-12T02:46:31.745Z,15.30
2023-05-12T02:49:34.377Z,15.24
2023-05-12T02:52:36.954Z,15.30
2023-05-12T02:55:40.100Z,15.35
2023-05-12T02:58:44.276Z,15.36
2023-05-12T03:01:46.903Z,15.31
2023-05-12T03:04:49.526Z,15.30
2023-05-12T03:07:52.187Z,15.29
2023-05-12T03:10:54.840Z,15.27
2023-05-12T03:13:58.790Z,15.30
2023-05-12T03:17:01.453Z,15.25
2023-05-12T03:20:04.408Z,15.27
2023-05-12T03:23:06.996Z,15.24
2023-05-12T03:26:09.549Z,15.21
2023-05-12T03:29:13.519Z,15.20
2023-05-12T03:32:16.672Z,15.15
2023-05-12T03:35:19.346Z,15.10
2023-05-12T03:38:22.253Z,15.17
2023-05-12T03:41:24.859Z,15.21
2023-05-12T03:44:28.802Z,15.16
2023-05-12T03:47:31.662Z,15.16
2023-05-12T03:50:34.366Z,15.14
2023-05-12T03:53:36.966Z,15.20
2023-05-12T03:56:39.536Z,15.13
2023-05-12T03:59:43.469Z,15.15
2023-05-12T04:02:46.305Z,15.17
2023-05-12T04:05:49.016Z,15.19
2023-05-12T04:08:51.570Z,15.18
2023-05-12T04:11:54.151Z,15.15
2023-05-12T04:14:58.218Z,15.18
2023-05-12T04:18:00.879Z,15.20
2023-05-12T04:21:03.963Z,15.24
2023-05-12T04:24:06.961Z,15.25
2023-05-12T04:27:09.570Z,15.24
2023-05-12T04:30:13.907Z,15.30
2023-05-12T04:33:16.501Z,15.32
2023-05-12T04:36:19.146Z,15.24
2023-05-12T04:39:21.770Z,15.31
2023-05-12T04:42:24.351Z,15.35
2023-05-12T04:45:28.335Z,15.25
2023-05-12T04:48:31.058Z,15.30
2023-05-12T04:51:33.699Z,15.29
2023-05-12T04:54:36.340Z,15.30
2023-05-12T04:57:41.205Z,15.28
2023-05-12T05:00:45.290Z,15.31
2023-05-12T05:03:47.986Z,15.34
2023-05-12T05:06:50.704Z,15.39
2023-05-12T05:09:53.709Z,15.31
2023-05-12T05:12:56.344Z,15.45
2023-05-12T05:16:00.365Z,15.54
2023-05-12T05:19:06.424Z,15.51
2023-05-12T05:22:11.932Z,15.60
2023-05-12T05:25:14.967Z,15.64
2023-05-12T05:28:17.938Z,15.64
2023-05-12T05:31:22.247Z,15.73
2023-05-12T05:34:24.899Z,15.80
2023-05-12T05:37:27.538Z,15.69
2023-05-12T05:40:36.041Z,15.81
2023-05-12T05:43:47.834Z,15.92
2023-05-12T05:46:51.958Z,15.88
2023-05-12T05:49:54.765Z,15.90
2023-05-12T05:52:57.387Z,16.01
2023-05-12T05:56:00.063Z,16.22
2023-05-12T05:59:04.399Z,16.11
2023-05-12T06:02:08.414Z,16.30
2023-05-12T06:05:13.652Z,16.29
2023-05-12T06:08:16.995Z,16.32
2023-05-12T06:11:19.552Z,16.46
2023-05-12T06:14:22.130Z,16.66
2023-05-12T06:17:26.095Z,16.63
2023-05-12T06:20:28.730Z,16.80
2023-05-12T06:23:31.696Z,16.75
2023-05-12T06:26:34.326Z,16.84
2023-05-12T06:29:36.941Z,16.98
2023-05-12T06:32:40.938Z,17.06
2023-05-12T06:35:43.563Z,17.12
2023-05-12T06:38:46.197Z,17.19
2023-05-12T06:41:48.777Z,17.31
2023-05-12T06:44:51.815Z,17.37
2023-05-12T06:47:57.563Z,17.50
2023-05-12T06:51:01.325Z,17.78
2023-05-12T06:54:03.984Z,17.89
2023-05-12T06:57:06.826Z,18.23
2023-05-12T07:00:10.710Z,18.38
2023-05-12T07:03:14.853Z,18.25
2023-05-12T07:06:17.689Z,18.22
2023-05-12T07:09:20.651Z,18.26
2023-05-12T07:12:23.276Z,18.26
2023-05-12T07:15:25.905Z,18.25
2023-05-12T07:18:29.907Z,18.18
2023-05-12T07:21:32.597Z,18.31
2023-05-12T07:24:35.269Z,18.48
2023-05-12T07:27:37.880Z,18.61
2023-05-12T07:30:40.612Z,18.87
2023-05-12T07:33:44.612Z,19.08
2023-05-12T07:36:47.217Z,19.21
2023-05-12T07:39:49.859Z,19.38
2023-05-12T07:42:53.018Z,19.57
2023-05-12T07:45:56.139Z,19.72
2023-05-12T07:49:00.162Z,19.93
2023-05-12T07:52:03.021Z,20.04
2023-05-12T07:55:06.145Z,20.18
2023-05-12T07:58:08.766Z,20.22
2023-05-12T08:01:11.409Z,20.28
2023-05-12T08:04:15.486Z,20.50
2023-05-12T08:07:18.115Z,20.55
2023-05-12T08:10:20.713Z,20.81
2023-05-12T08:13:23.353Z,21.11
2023-05-12T08:16:26.107Z,21.34
2023-05-12T08:19:30.067Z,21.59
2023-05-12T08:22:32.876Z,21.99
2023-05-12T08:25:36.986Z,22.16
2023-05-12T08:28:39.867Z,22.44
2023-05-12T08:31:42.541Z,22.78
2023-05-12T08:34:46.519Z,22.90
2023-05-12T08:37:49.208Z,22.97
2023-05-12T08:40:58.498Z,23.03
2023-05-12T08:44:01.382Z,23.26
2023-05-12T08:47:06.091Z,23.41
2023-05-12T08:50:13.241Z,23.68
2023-05-12T08:53:19.716Z,23.72
2023-05-12T08:59:29.870Z,24.01
2023-05-12T09:02:44.636Z,23.94
2023-05-12T09:05:52.652Z,23.98
2023-05-12T09:08:55.642Z,24.16
2023-05-12T09:12:01.436Z,24.19
2023-05-12T09:15:12.916Z,24.36
2023-05-12T09:18:16.068Z,24.76
2023-05-12T09:21:20.526Z,24.81
2023-05-12T09:24:34.828Z,25.07
2023-05-12T09:27:37.668Z,25.31
2023-05-12T09:30:42.282Z,25.62
2023-05-12T09:33:44.961Z,25.67
2023-05-12T09:36:58.141Z,25.62
2023-05-12T09:40:01.619Z,25.60
2023-05-12T09:43:04.737Z,26.13
2023-05-12T09:46:07.920Z,26.19
2023-05-12T09:49:10.552Z,26.23
2023-05-12T09:52:14.494Z,26.31
2023-05-12T09:55:17.237Z,26.91
2023-05-12T09:58:21.516Z,26.90
2023-05-12T10:01:25.269Z,27.09
2023-05-12T10:04:29.972Z,26.73
2023-05-12T10:07:35.438Z,25.64
2023-05-12T10:10:38.314Z,25.84
2023-05-12T10:13:41.462Z,26.62
2023-05-12T10:16:46.256Z,26.30
2023-05-12T10:19:52.074Z,27.09
2023-05-12T10:22:58.825Z,26.76
2023-05-12T10:26:03.326Z,26.96
2023-05-12T10:29:06.983Z,27.54
2023-05-12T10:32:10.529Z,26.19
2023-05-12T10:35:14.484Z,25.36
2023-05-12T10:38:19.703Z,24.73
2023-05-12T10:41:32.342Z,24.69
2023-05-12T10:44:35.832Z,24.85
2023-05-12T10:47:38.885Z,25.91
2023-05-12T10:50:54.501Z,26.91
2023-05-12T10:54:03.653Z,25.89
2023-05-12T10:57:17.943Z,25.29
2023-05-12T11:00:26.400Z,25.38
2023-05-12T11:03:30.401Z,24.99
2023-05-12T11:06:34.264Z,24.95
2023-05-12T11:09:50.389Z,25.92
2023-05-12T11:12:56.198Z,26.99
2023-05-12T11:15:59.146Z,27.74
2023-05-12T11:19:03.266Z,28.77
2023-05-12T11:22:07.796Z,28.06
2023-05-12T11:25:12.968Z,26.62
2023-05-12T11:28:15.630Z,26.75
2023-05-12T11:31:19.931Z,27.14
2023-05-12T11:34:23.855Z,27.52
2023-05-12T11:37:26.518Z,28.72
2023-05-12T11:40:30.504Z,28.73
2023-05-12T11:43:33.140Z,28.05
2023-05-12T11:46:35.743Z,26.82
2023-05-12T11:49:47.475Z,25.72
2023-05-12T11:52:50.699Z,25.43
2023-05-12T11:55:56.599Z,26.36
2023-05-12T11:58:59.935Z,27.02
2023-05-12T12:02:04.439Z,27.65
2023-05-12T12:05:17.739Z,28.58
2023-05-12T12:08:20.532Z,28.37
2023-05-12T12:11:26.808Z,28.73
2023-05-12T12:14:29.620Z,28.40
2023-05-12T12:17:32.209Z,28.12
2023-05-12T12:20:34.850Z,27.85
2023-05-12T12:23:49.946Z,27.66
2023-05-12T12:26:54.687Z,27.13
2023-05-12T12:29:57.331Z,27.60
2023-05-12T12:33:00.110Z,28.31
2023-05-12T12:36:02.824Z,28.33
2023-05-12T12:39:05.422Z,28.78
2023-05-12T12:42:09.439Z,29.37
2023-05-12T12:45:13.401Z,29.77
2023-05-12T12:48:16.031Z,29.70
2023-05-12T12:51:18.815Z,29.32
2023-05-12T12:54:21.561Z,29.49
2023-05-12T12:57:26.034Z,29.67
2023-05-12T13:00:28.764Z,28.99
2023-05-12T13:03:31.431Z,28.71
2023-05-12T13:06:34.589Z,28.18
2023-05-12T13:09:37.220Z,27.49
2023-05-12T13:12:41.254Z,26.21
2023-05-12T13:15:43.831Z,26.63
2023-05-12T13:18:46.522Z,27.61
2023-05-12T13:21:49.550Z,27.70
2023-05-12T13:24:52.141Z,28.78
2023-05-12T13:27:56.103Z,28.37
2023-05-12T13:30:58.789Z,28.17
2023-05-12T13:34:01.474Z,26.61
2023-05-12T13:37:04.055Z,26.54
2023-05-12T13:40:08.083Z,27.36
2023-05-12T13:43:12.977Z,26.70
2023-05-12T13:46:15.624Z,26.73
2023-05-12T13:49:19.726Z,26.81
2023-05-12T13:52:22.307Z,27.21
2023-05-12T13:55:25.523Z,27.00
2023-05-12T13:58:29.715Z,26.96
2023-05-12T14:01:32.529Z,27.18
2023-05-12T14:04:35.174Z,27.03
2023-05-12T14:07:37.782Z,26.47
2023-05-12T14:10:40.392Z,26.29
2023-05-12T14:13:44.384Z,26.40
2023-05-12T14:16:47.295Z,26.16
2023-05-12T14:19:49.902Z,26.52
2023-05-12T14:22:52.510Z,25.83
2023-05-12T14:25:55.407Z,25.52
2023-05-12T14:28:59.406Z,25.19
2023-05-12T14:32:02.941Z,24.59
2023-05-12T14:35:08.261Z,24.72
2023-05-12T14:38:11.124Z,24.51
2023-05-12T14:41:13.804Z,24.50
2023-05-12T14:44:17.762Z,23.96
2023-05-12T14:47:20.348Z,24.04
2023-05-12T14:50:23.715Z,24.06
2023-05-12T14:53:26.419Z,24.03
2023-05-12T14:56:29.162Z,23.89
2023-05-12T14:59:33.279Z,23.64
2023-05-12T15:02:35.974Z,23.40
2023-05-12T15:05:56.847Z,23.41
2023-05-12T15:09:01.371Z,23.49
2023-05-12T15:12:04.013Z,23.34
2023-05-12T15:15:11.429Z,23.24
2023-05-12T15:18:14.103Z,23.46
2023-05-12T15:21:16.756Z,23.25
2023-05-12T15:24:19.349Z,23.23
2023-05-12T15:27:21.925Z,23.06
2023-05-12T15:30:25.863Z,23.05
2023-05-12T15:33:29.856Z,22.97
2023-05-12T15:36:33.043Z,22.94
2023-05-12T15:39:35.653Z,22.87
2023-05-12T15:42:38.207Z,22.87
2023-05-12T15:45:42.192Z,22.77
2023-05-12T15:48:44.768Z,22.80
2023-05-12T15:51:47.341Z,22.66
2023-05-12T15:54:49.899Z,22.52
2023-05-12T15:57:53.584Z,22.43
2023-05-12T16:00:57.768Z,22.38
2023-05-12T16:04:00.649Z,22.35
2023-05-12T16:07:03.611Z,22.38
2023-05-12T16:10:07.091Z,22.30
2023-05-12T16:13:09.786Z,22.27
2023-05-12T16:16:14.021Z,22.30
2023-05-12T16:19:16.900Z,22.03
2023-05-12T16:22:19.514Z,22.10
2023-05-12T16:25:22.713Z,21.87
2023-05-12T16:28:25.339Z,21.88
2023-05-12T16:31:30.756Z,21.79
2023-05-12T16:34:33.385Z,21.85
2023-05-12T16:37:36.024Z,21.72
2023-05-12T16:40:38.585Z,21.81
2023-05-12T16:43:41.161Z,21.67
2023-05-12T16:46:45.143Z,21.63
2023-05-12T16:49:47.749Z,21.54
2023-05-12T16:52:50.937Z,21.59
2023-05-12T16:55:53.634Z,21.64
2023-05-12T16:58:56.253Z,21.60
2023-05-12T17:02:01.261Z,21.52
2023-05-12T17:05:03.857Z,21.42
2023-05-12T17:08:06.451Z,21.43
2023-05-12T17:11:09.582Z,21.61
2023-05-12T17:14:12.435Z,21.46
2023-05-12T17:17:16.386Z,21.33
2023-05-12T17:20:19.253Z,20.92
2023-05-12T17:23:22.066Z,21.15
2023-05-12T17:26:27.547Z,21.13
2023-05-12T17:29:30.114Z,21.14
2023-05-12T17:32:34.102Z,21.08
2023-05-12T17:35:36.818Z,20.83
2023-05-12T17:38:39.847Z,20.77
2023-05-12T17:41:42.563Z,20.87
2023-05-12T17:44:45.417Z,20.79
2023-05-12T17:47:50.331Z,20.61
2023-05-12T17:50:52.983Z,20.52
2023-05-12T17:53:55.577Z,20.61
2023-05-12T17:56:58.208Z,20.76
2023-05-12T18:00:01.425Z,20.53
2023-05-12T18:03:05.535Z,20.36
2023-05-12T18:06:12.649Z,20.33
2023-05-12T18:09:15.494Z,20.39
2023-05-12T18:12:18.865Z,20.19
2023-05-12T18:15:22.765Z,20.32
2023-05-12T18:18:27.077Z,19.98
2023-05-12T18:21:29.706Z,19.85
2023-05-12T18:24:32.318Z,19.82
2023-05-12T18:27:34.944Z,19.67
2023-05-12T18:30:38.286Z,19.74
2023-05-12T18:33:42.273Z,19.55
2023-05-12T18:36:45.624Z,19.69
2023-05-12T18:39:48.677Z,19.53
2023-05-12T18:42:51.758Z,19.34
2023-05-12T18:45:54.380Z,19.47
2023-05-12T18:48:58.309Z,19.21
2023-05-12T18:52:00.921Z,18.98
2023-05-12T18:55:03.524Z,18.83
2023-05-12T18:58:06.590Z,19.04
2023-05-12T19:01:09.289Z,18.95
2023-05-12T19:04:13.224Z,18.88
2023-05-12T19:07:16.853Z,18.85
2023-05-12T19:10:19.498Z,18.78
2023-05-12T19:13:22.083Z,18.68
2023-05-12T19:16:24.754Z,18.32
2023-05-12T19:19:29.013Z,18.37
2023-05-12T19:22:31.685Z,18.35
2023-05-12T19:25:35.254Z,18.32
2023-05-12T19:28:38.146Z,18.14
2023-05-12T19:31:40.884Z,18.03
2023-05-12T19:34:45.011Z,18.03
2023-05-12T19:37:47.612Z,17.94
2023-05-12T19:40:50.280Z,17.83
2023-05-12T19:43:52.862Z,17.83
2023-05-12T19:46:56.551Z,17.74
2023-05-12T19:50:00.505Z,17.62
2023-05-12T19:53:03.168Z,17.59
2023-05-12T19:56:05.801Z,17.43
2023-05-12T19:59:08.423Z,17.32
2023-05-12T20:02:14.389Z,17.42
2023-05-12T20:05:18.736Z,17.38
2023-05-12T20:08:21.419Z,17.28
2023-05-12T20:11:24.927Z,17.12
2023-05-12T20:14:27.551Z,17.08
2023-05-12T20:17:30.159Z,17.06
2023-05-12T20:20:34.157Z,17.03
2023-05-12T20:23:36.853Z,17.06
2023-05-12T20:26:39.461Z,17.02
2023-05-12T20:29:42.064Z,16.88
2023-05-12T20:32:44.691Z,16.86
2023-05-12T20:35:48.650Z,16.85
2023-05-12T20:38:51.231Z,16.78
2023-05-12T20:41:54.197Z,16.71
2023-05-12T20:44:56.780Z,16.72
2023-05-12T20:47:59.437Z,16.62
2023-05-12T20:51:12.351Z,16.24
2023-05-12T20:54:14.949Z,16.48
2023-05-12T20:57:17.566Z,16.30
2023-05-12T21:00:20.467Z,16.44
2023-05-12T21:03:23.930Z,16.46
2023-05-12T21:06:27.912Z,16.42
2023-05-12T21:09:30.523Z,16.33
2023-05-12T21:12:33.255Z,16.29
2023-05-12T21:15:36.269Z,16.31
2023-05-12T21:18:39.018Z,16.24
2023-05-12T21:21:43.010Z,16.17
2023-05-12T21:24:45.604Z,16.08
2023-05-12T21:27:48.359Z,16.06
2023-05-12T21:30:50.942Z,16.03
2023-05-12T21:33:53.572Z,15.94
2023-05-12T21:36:57.568Z,15.79
2023-05-12T21:40:00.226Z,15.88
2023-05-12T21:43:02.867Z,15.77
2023-05-12T21:46:06.388Z,15.88
2023-05-12T21:49:09.101Z,15.78
2023-05-12T21:52:13.105Z,15.76
2023-05-12T21:55:16.142Z,15.63
2023-05-12T21:58:18.758Z,15.62
2023-05-12T22:01:21.457Z,15.42
2023-05-12T22:04:24.452Z,15.48
2023-05-12T22:07:28.489Z,15.50
2023-05-12T22:10:31.508Z,15.50
2023-05-12T22:13:34.108Z,15.37
2023-05-12T22:16:41.870Z,15.33
2023-05-12T22:19:45.305Z,15.28
2023-05-12T22:22:49.525Z,15.23
2023-05-12T22:25:52.232Z,15.13
2023-05-12T22:28:54.869Z,15.06
2023-05-12T22:31:57.465Z,15.07
2023-05-12T22:35:00.170Z,15.13
2023-05-12T22:38:04.182Z,15.05
2023-05-12T22:41:06.760Z,14.98
2023-05-12T22:44:09.724Z,14.99
2023-05-12T22:47:12.410Z,14.90
2023-05-12T22:50:15.012Z,14.85
2023-05-12T22:53:18.927Z,14.80
2023-05-12T22:56:21.552Z,14.73
2023-05-12T22:59:24.133Z,14.70
2023-05-12T23:02:26.840Z,14.62
2023-05-12T23:05:29.479Z,14.58
2023-05-12T23:08:33.421Z,14.61
2023-05-12T23:11:36.040Z,14.57
2023-05-12T23:14:38.623Z,14.54
2023-05-12T23:17:41.245Z,14.39
2023-05-12T23:20:43.875Z,14.42
2023-05-12T23:23:47.801Z,14.38
2023-05-12T23:26:50.529Z,14.30
2023-05-12T23:29:53.289Z,14.17
2023-05-12T23:32:55.922Z,14.25
2023-05-12T23:35:58.594Z,14.19
2023-05-12T23:39:02.557Z,14.09
2023-05-12T23:42:05.688Z,14.05
2023-05-12T23:45:09.221Z,14.09
2023-05-12T23:48:11.844Z,14.00
2023-05-12T23:51:14.634Z,13.99
2023-05-12T23:54:18.566Z,13.96
2023-05-12T23:57:21.182Z,13.82
